Time;durP1;ratioP1;P1;durP2;ratioP2;P2;SDS_P1;SDS_P2;PMS_P1;PMS_P2;Temp;Humidity;BMP_temperature;BMP_pressure;BME280_temperature;BME280_humidity;BME280_pressure;Samples;Min_cycle;Max_cycle;Signal;HPM_P1;HPM_P2
2022/02/20 00:01:45;;;;;;;4.67;3.00;;;;;;;0.38;100.00;96900.69;4949189;28;20217;-51
2022/02/20 00:04:13;;;;;;;6.10;3.27;;;;;;;0.41;100.00;96899.59;4956411;28;20264;-50
2022/02/20 00:06:41;;;;;;;3.90;3.30;;;;;;;0.38;100.00;96905.06;4960044;28;20321;-57
2022/02/20 00:09:11;;;;;;;6.67;3.20;;;;;;;0.54;100.00;96909.84;4964739;28;20234;-54
2022/02/20 00:11:39;;;;;;;3.63;3.13;;;;;;;0.38;100.00;96905.06;4923003;28;20304;-56
2022/02/20 00:14:07;;;;;;;3.13;2.93;;;;;;;0.59;100.00;96899.84;4945236;28;20359;-51
2022/02/20 00:16:37;;;;;;;3.33;2.97;;;;;;;0.63;100.00;96903.84;4949395;28;20292;-55
2022/02/20 00:19:05;;;;;;;3.03;2.87;;;;;;;0.66;100.00;96916.63;4964738;28;20225;-50
2022/02/20 00:21:34;;;;;;;5.03;2.97;;;;;;;0.69;100.00;96916.38;4953219;28;20296;-56
2022/02/20 00:24:02;;;;;;;4.70;2.53;;;;;;;0.71;100.00;96905.84;4966377;28;20306;-49
2022/02/20 00:26:31;;;;;;;4.23;2.90;;;;;;;0.66;100.00;96898.38;4903138;28;20510;-53
2022/02/20 00:28:59;;;;;;;4.97;3.17;;;;;;;0.77;100.00;96904.50;4962336;28;20299;-58
2022/02/20 00:31:28;;;;;;;3.60;3.23;;;;;;;0.83;100.00;96915.22;4942800;28;20213;-52
2022/02/20 00:33:56;;;;;;;6.53;3.60;;;;;;;0.76;100.00;96921.06;4949026;28;20313;-49
2022/02/20 00:36:24;;;;;;;5.23;2.93;;;;;;;0.68;100.00;96925.16;4946795;28;20288;-51
2022/02/20 00:38:52;;;;;;;4.37;3.00;;;;;;;0.75;100.00;96920.25;4960849;28;20710;-52
2022/02/20 00:41:20;;;;;;;2.90;2.57;;;;;;;1.03;100.00;96915.34;4926365;28;21037;-56
2022/02/20 00:43:50;;;;;;;3.73;2.60;;;;;;;1.03;100.00;96927.53;4965120;28;20233;-50
2022/02/20 00:46:18;;;;;;;4.33;2.27;;;;;;;1.15;100.00;96909.06;4942260;28;20528;-57
2022/02/20 00:48:46;;;;;;;4.97;3.40;;;;;;;1.28;100.00;96919.28;4949610;28;20224;-52
2022/02/20 00:51:15;;;;;;;5.03;2.30;;;;;;;1.49;100.00;96914.94;4948767;28;20621;-58
2022/02/20 00:53:43;;;;;;;2.37;1.80;;;;;;;1.47;100.00;96930.72;4963220;28;20226;-50
2022/02/20 00:56:11;;;;;;;2.60;2.40;;;;;;;1.31;100.00;96920.78;4921383;28;20349;-57
2022/02/20 00:58:39;;;;;;;2.07;1.87;;;;;;;1.30;100.00;96940.84;4960841;28;20238;-52
2022/02/20 01:01:09;;;;;;;2.43;2.23;;;;;;;1.22;100.00;96929.41;4943960;28;20689;-56
2022/02/20 01:03:37;;;;;;;2.20;2.00;;;;;;;1.02;100.00;96913.69;4948151;28;20233;-52
2022/02/20 01:06:05;;;;;;;2.10;2.00;;;;;;;0.80;100.00;96907.66;4964368;28;20313;-59
2022/02/20 01:08:33;;;;;;;2.77;2.30;;;;;;;0.65;100.00;96914.19;4952319;28;20261;-53
2022/02/20 01:11:02;;;;;;;1.90;1.80;;;;;;;0.59;100.00;96914.69;4958281;28;20206;-55
2022/02/20 01:13:30;;;;;;;4.57;2.40;;;;;;;0.38;100.00;96907.69;4933563;28;20312;-50
2022/02/20 01:15:59;;;;;;;1.83;1.73;;;;;;;0.25;100.00;96911.31;4944082;28;20207;-56
2022/02/20 01:18:28;;;;;;;3.33;2.50;;;;;;;0.05;100.00;96899.91;4962422;28;20241;-53
2022/02/20 01:20:56;;;;;;;2.53;2.33;;;;;;;0.09;100.00;96896.09;4952205;28;20268;-50
2022/02/20 01:23:25;;;;;;;2.07;1.90;;;;;;;0.04;100.00;96892.19;4948185;28;20230;-51
2022/02/20 01:25:53;;;;;;;2.87;2.30;;;;;;;-0.05;100.00;96894.63;4964169;28;20340;-49
2022/02/20 01:28:21;;;;;;;3.57;2.50;;;;;;;-0.05;100.00;96888.56;4918663;28;20316;-49
2022/02/20 01:30:49;;;;;;;8.37;3.00;;;;;;;-0.23;100.00;96891.72;4969089;28;20686;-52
2022/02/20 01:33:18;;;;;;;2.40;1.87;;;;;;;-0.12;100.00;96879.59;4938032;28;20242;-55
2022/02/20 01:35:48;;;;;;;2.67;2.47;;;;;;;-0.06;100.00;96879.09;4948024;28;20289;-50
2022/02/20 01:38:16;;;;;;;2.23;2.13;;;;;;;-0.18;100.00;96867.91;4950290;28;20213;-56
2022/02/20 01:40:45;;;;;;;2.43;2.30;;;;;;;-0.19;100.00;96869.69;4964723;28;20619;-55
2022/02/20 01:43:13;;;;;;;1.90;1.80;;;;;;;-0.21;100.00;96866.38;4923281;28;20265;-55
2022/02/20 01:45:42;;;;;;;2.63;2.43;;;;;;;-0.28;100.00;96867.81;4964940;28;20598;-53
2022/02/20 01:48:10;;;;;;;5.07;2.60;;;;;;;-0.29;100.00;96858.38;4940287;28;20823;-57
2022/02/20 01:50:38;;;;;;;2.87;2.37;;;;;;;-0.28;100.00;96861.78;4961828;28;20233;-56
2022/02/20 01:53:08;;;;;;;2.27;2.17;;;;;;;-0.41;100.00;96854.97;4943513;28;20258;-55
2022/02/20 01:55:36;;;;;;;3.30;2.23;;;;;;;-0.27;100.00;96863.44;4955115;28;20265;-55
2022/02/20 01:58:05;;;;;;;2.33;2.23;;;;;;;-0.28;100.00;96856.56;4957081;28;20658;-51
2022/02/20 02:00:34;;;;;;;4.40;2.13;;;;;;;-0.35;100.00;96857.06;4945158;28;20222;-49
2022/02/20 02:03:02;;;;;;;2.40;2.20;;;;;;;-0.48;100.00;96859.81;4965524;28;20230;-56
2022/02/20 02:05:31;;;;;;;3.47;1.87;;;;;;;-0.34;100.00;96853.50;4939630;28;20213;-51
2022/02/20 02:07:59;;;;;;;2.80;2.07;;;;;;;-0.32;100.00;96849.00;4942343;28;20257;-48
2022/02/20 02:10:28;;;;;;;2.70;2.60;;;;;;;-0.42;100.00;96849.88;4950142;28;20302;-52
2022/02/20 02:12:57;;;;;;;2.53;2.33;;;;;;;-0.35;100.00;96843.25;4957445;28;20284;-54
2022/02/20 02:15:25;;;;;;;2.70;2.10;;;;;;;-0.49;100.00;96855.56;4921716;28;20240;-48
2022/02/20 02:17:53;;;;;;;6.20;1.93;;;;;;;-0.45;100.00;96846.56;4959500;28;20292;-51
2022/02/20 02:20:21;;;;;;;1.80;1.80;;;;;;;-0.44;100.00;96856.03;4936657;28;20206;-51
2022/02/20 02:22:51;;;;;;;3.50;2.13;;;;;;;-0.43;100.00;96859.47;4950412;28;20218;-54
2022/02/20 02:25:19;;;;;;;5.53;2.47;;;;;;;-0.34;100.00;96850.91;4944608;28;20269;-51
2022/02/20 02:27:47;;;;;;;1.67;1.67;;;;;;;-0.35;100.00;96849.25;4962761;28;20316;-54
2022/02/20 02:30:15;;;;;;;2.70;2.40;;;;;;;-0.25;100.00;96848.50;4920291;28;20318;-52
2022/02/20 02:32:43;;;;;;;1.97;1.83;;;;;;;-0.30;100.00;96854.09;4965700;28;20205;-49
2022/02/20 02:35:11;;;;;;;3.03;2.37;;;;;;;-0.18;100.00;96850.50;4958797;28;20240;-57
2022/02/20 02:37:40;;;;;;;3.00;1.83;;;;;;;-0.17;100.00;96848.75;4946524;28;20233;-53
2022/02/20 02:40:11;;;;;;;4.27;2.03;;;;;;;-0.07;100.00;96851.41;4959212;28;20208;-54
2022/02/20 02:42:40;;;;;;;2.20;1.70;;;;;;;-0.03;100.00;96852.78;4954372;28;20214;-54
2022/02/20 02:45:09;;;;;;;2.17;1.97;;;;;;;-0.17;100.00;96848.75;4923096;28;20245;-59
2022/02/20 02:47:37;;;;;;;5.97;2.00;;;;;;;-0.08;100.00;96842.78;4960835;28;20261;-51
2022/02/20 02:50:06;;;;;;;1.97;1.87;;;;;;;-0.15;100.00;96846.84;4964816;28;20587;-53
2022/02/20 02:52:34;;;;;;;4.60;2.07;;;;;;;-0.02;100.00;96847.47;4959281;28;20222;-58
2022/02/20 02:55:02;;;;;;;2.87;1.90;;;;;;;-0.10;100.00;96839.47;4942071;28;20295;-57
2022/02/20 02:57:32;;;;;;;1.87;1.77;;;;;;;0.07;100.00;96845.06;4944789;28;20217;-51
2022/02/20 03:00:01;;;;;;;2.37;1.73;;;;;;;0.16;100.00;96831.25;4922516;28;20218;-55
2022/02/20 03:02:29;;;;;;;1.63;1.53;;;;;;;0.30;100.00;96834.53;4961631;28;20373;-48
2022/02/20 03:05:00;;;;;;;1.60;1.50;;;;;;;0.34;100.00;96826.31;4961673;28;20513;-57
2022/02/20 03:07:29;;;;;;;5.53;1.87;;;;;;;0.34;100.00;96834.13;4964719;28;20412;-54
2022/02/20 03:09:57;;;;;;;3.50;1.93;;;;;;;0.41;100.00;96837.06;4951172;28;20318;-51
2022/02/20 03:12:25;;;;;;;1.37;1.27;;;;;;;0.50;100.00;96825.84;4944024;28;20333;-51
2022/02/20 03:14:55;;;;;;;2.30;2.10;;;;;;;0.54;100.00;96829.84;4925364;28;20277;-51
2022/02/20 03:17:24;;;;;;;1.90;1.70;;;;;;;0.49;100.00;96829.41;4954173;28;20324;-51
2022/02/20 03:19:52;;;;;;;2.10;1.73;;;;;;;0.70;100.00;96831.16;4944667;28;20311;-52
2022/02/20 03:22:20;;;;;;;2.30;1.57;;;;;;;0.68;100.00;96827.84;4960816;28;20213;-52
2022/02/20 03:24:48;;;;;;;2.33;1.50;;;;;;;0.75;100.00;96830.75;4964562;28;20229;-53
2022/02/20 03:27:17;;;;;;;4.03;2.17;;;;;;;0.80;100.00;96836.44;4935303;28;20316;-54
2022/02/20 03:29:45;;;;;;;2.83;1.90;;;;;;;0.80;100.00;96826.81;4932674;28;20849;-53
2022/02/20 03:32:14;;;;;;;1.77;1.67;;;;;;;0.80;100.00;96846.84;4962409;28;20313;-54
2022/02/20 03:34:42;;;;;;;1.67;1.57;;;;;;;0.90;100.00;96839.06;4966234;28;20261;-53
2022/02/20 03:37:11;;;;;;;3.63;1.50;;;;;;;0.77;100.00;96824.47;4949409;28;20319;-55
2022/02/20 03:39:39;;;;;;;2.10;1.57;;;;;;;0.92;100.00;96847.56;4967672;28;20237;-55
2022/02/20 03:42:08;;;;;;;1.93;1.43;;;;;;;1.11;100.00;96842.44;4948431;28;20304;-54
2022/02/20 03:44:36;;;;;;;1.63;1.53;;;;;;;1.06;100.00;96839.41;4913078;28;21137;-50
2022/02/20 03:47:04;;;;;;;2.97;1.20;;;;;;;1.17;100.00;96853.28;4968207;28;20273;-51
2022/02/20 03:49:34;;;;;;;1.57;1.47;;;;;;;1.17;100.00;96850.69;4972648;28;20921;-50
2022/02/20 03:52:02;;;;;;;6.13;1.63;;;;;;;1.05;100.00;96852.56;4963098;28;20209;-54
2022/02/20 03:54:30;;;;;;;1.53;1.43;;;;;;;1.23;100.00;96856.22;4963952;28;20872;-50
2022/02/20 03:56:59;;;;;;;3.67;1.90;;;;;;;1.13;100.00;96864.00;4954160;28;20781;-51
2022/02/20 03:59:33;;;;;;;1.40;1.30;;;;;;;1.15;100.00;96869.91;4935156;28;21659;-52
2022/02/20 04:02:01;;;;;;;1.30;1.30;;;;;;;1.36;100.00;96884.69;4922019;28;20217;-50
2022/02/20 04:04:29;;;;;;;3.17;1.60;;;;;;;1.24;100.00;96877.91;4962693;28;20240;-50
2022/02/20 04:06:58;;;;;;;1.97;1.77;;;;;;;1.26;100.00;96874.22;4972037;28;20202;-50
2022/02/20 04:09:26;;;;;;;2.27;2.07;;;;;;;1.30;100.00;96869.53;4946669;28;20212;-48
2022/02/20 04:11:54;;;;;;;2.97;1.77;;;;;;;1.41;100.00;96864.22;4971096;28;20205;-53
2022/02/20 04:14:22;;;;;;;1.57;1.23;;;;;;;1.53;100.00;96853.66;4943051;28;20325;-53
2022/02/20 04:16:50;;;;;;;1.30;1.30;;;;;;;1.48;100.00;96859.28;4921184;28;20222;-51
2022/02/20 04:19:18;;;;;;;6.00;1.70;;;;;;;1.49;100.00;96852.28;4958136;28;20213;-49
2022/02/20 04:21:46;;;;;;;4.10;1.60;;;;;;;1.56;100.00;96863.81;4969231;28;20198;-50
2022/02/20 04:24:16;;;;;;;1.40;1.37;;;;;;;1.51;100.00;96872.06;4940835;28;20238;-53
2022/02/20 04:26:44;;;;;;;1.10;1.10;;;;;;;1.56;100.00;96863.81;4967851;28;20248;-49
2022/02/20 04:29:12;;;;;;;2.73;2.37;;;;;;;1.67;100.00;96863.69;4944361;28;20228;-53
2022/02/20 04:31:40;;;;;;;1.30;1.20;;;;;;;1.59;100.00;96861.78;4969300;28;20218;-51
2022/02/20 04:34:08;;;;;;;1.87;1.77;;;;;;;1.69;100.00;96861.78;4919810;28;20806;-53
2022/02/20 04:36:37;;;;;;;2.53;2.33;;;;;;;1.72;100.00;96858.91;4966212;28;20412;-52
2022/02/20 04:39:05;;;;;;;2.83;1.73;;;;;;;1.69;100.00;96863.56;4948474;28;20236;-52
2022/02/20 04:41:35;;;;;;;2.67;1.60;;;;;;;1.76;100.00;96853.41;4967864;28;20202;-52
2022/02/20 04:44:03;;;;;;;1.43;1.40;;;;;;;1.69;100.00;96846.09;4949814;28;20225;-55
2022/02/20 04:46:34;;;;;;;1.50;1.40;;;;;;;1.82;100.00;96848.44;4965262;28;20253;-54
2022/02/20 04:49:02;;;;;;;1.90;1.23;;;;;;;1.87;100.00;96837.59;4929107;28;20222;-55
2022/02/20 04:51:30;;;;;;;1.80;1.70;;;;;;;1.95;100.00;96837.72;4965400;28;20225;-53
2022/02/20 04:53:58;;;;;;;2.53;1.70;;;;;;;2.02;100.00;96838.81;4945423;28;20230;-56
2022/02/20 04:56:26;;;;;;;2.47;1.57;;;;;;;2.11;100.00;96834.56;4960358;28;20198;-50
2022/02/20 04:58:55;;;;;;;1.40;1.30;;;;;;;2.12;100.00;96836.19;4969234;28;20217;-51
2022/02/20 05:01:24;;;;;;;1.40;1.40;;;;;;;2.09;100.00;96835.69;4943860;28;20247;-52
2022/02/20 05:03:52;;;;;;;2.00;1.20;;;;;;;2.11;100.00;96839.78;4928512;28;20230;-51
2022/02/20 05:06:27;;;;;;;2.07;1.17;;;;;;;2.18;100.00;96832.22;4965204;28;20213;-51
2022/02/20 05:08:56;;;;;;;3.60;1.50;;;;;;;2.16;100.00;96845.41;4930991;28;20237;-52
2022/02/20 05:11:24;;;;;;;0.97;0.97;;;;;;;2.24;100.00;96842.09;4962270;28;20229;-49
2022/02/20 05:13:54;;;;;;;3.43;1.10;;;;;;;2.29;100.00;96850.34;4964472;28;20241;-54
2022/02/20 05:16:24;;;;;;;2.20;1.37;;;;;;;2.39;100.00;96844.28;4947411;28;20296;-52
2022/02/20 05:18:52;;;;;;;3.37;1.80;;;;;;;2.38;100.00;96843.47;4922106;28;20260;-55
2022/02/20 05:21:20;;;;;;;2.20;1.70;;;;;;;2.46;100.00;96842.75;4943355;28;20464;-52
2022/02/20 05:23:48;;;;;;;1.73;1.30;;;;;;;2.39;100.00;96837.28;4941580;28;20234;-53
2022/02/20 05:26:16;;;;;;;2.50;1.60;;;;;;;2.42;100.00;96850.06;4923597;28;20202;-49
2022/02/20 05:28:44;;;;;;;1.70;1.60;;;;;;;2.46;100.00;96840.97;4945599;28;21931;-51
2022/02/20 05:31:12;;;;;;;1.70;1.53;;;;;;;2.45;100.00;96844.53;4907667;28;20244;-53
2022/02/20 05:33:42;;;;;;;3.57;1.70;;;;;;;2.52;100.00;96855.28;4945353;28;20235;-54
2022/02/20 05:36:10;;;;;;;4.70;1.63;;;;;;;2.45;100.00;96851.56;4904287;28;20210;-51
2022/02/20 05:38:38;;;;;;;3.13;2.30;;;;;;;2.35;100.00;96854.22;4947976;28;20212;-52
2022/02/20 05:41:06;;;;;;;1.60;1.30;;;;;;;2.63;100.00;96861.31;4895466;28;20233;-54
2022/02/20 05:43:34;;;;;;;2.30;1.50;;;;;;;2.44;100.00;96870.81;4948729;28;20249;-54
2022/02/20 05:46:03;;;;;;;1.90;1.47;;;;;;;2.46;100.00;96871.50;4938319;28;20210;-54
2022/02/20 05:48:31;;;;;;;1.43;1.33;;;;;;;2.44;100.00;96873.44;4942461;28;20230;-53
2022/02/20 05:51:00;;;;;;;3.07;1.43;;;;;;;2.38;100.00;96872.22;4903254;28;20218;-50
2022/02/20 05:53:28;;;;;;;1.37;1.27;;;;;;;2.52;100.00;96867.50;4943523;28;20240;-55
2022/02/20 05:55:56;;;;;;;1.50;1.40;;;;;;;2.57;100.00;96881.00;4924898;28;20213;-52
2022/02/20 05:58:24;;;;;;;1.40;1.30;;;;;;;2.77;100.00;96879.16;4921437;28;20210;-54
2022/02/20 06:00:52;;;;;;;1.53;1.43;;;;;;;2.69;100.00;96874.66;4946796;28;20206;-50
2022/02/20 06:03:20;;;;;;;1.23;1.23;;;;;;;2.64;100.00;96868.19;4895002;28;20873;-54
2022/02/20 06:05:48;;;;;;;1.53;1.33;;;;;;;2.70;100.00;96872.84;4908209;28;20586;-52
2022/02/20 06:08:18;;;;;;;1.60;1.50;;;;;;;2.59;100.00;96885.13;4923790;28;20234;-51
2022/02/20 06:10:46;;;;;;;1.27;1.27;;;;;;;2.76;100.00;96877.50;4935848;28;20217;-56
2022/02/20 06:13:17;;;;;;;3.37;2.23;;;;;;;2.64;100.00;96882.06;4919901;28;20234;-50
2022/02/20 06:15:45;;;;;;;1.40;1.30;;;;;;;2.85;100.00;96900.22;4948726;28;20294;-53
2022/02/20 06:18:14;;;;;;;1.70;1.60;;;;;;;2.86;100.00;96901.03;4932535;28;20213;-53
2022/02/20 06:20:42;;;;;;;4.13;1.73;;;;;;;2.79;100.00;96897.34;4930009;28;20370;-54
2022/02/20 06:23:11;;;;;;;1.57;1.40;;;;;;;2.77;100.00;96892.22;4929277;28;20231;-52
2022/02/20 06:25:44;;;;;;;2.67;1.60;;;;;;;2.79;100.00;96903.38;4905631;28;20218;-54
2022/02/20 06:28:12;;;;;;;1.77;1.30;;;;;;;3.18;100.00;96912.91;4923153;28;20298;-55
2022/02/20 06:30:40;;;;;;;5.83;2.07;;;;;;;3.15;100.00;96924.50;4924219;28;21365;-55
2022/02/20 06:33:08;;;;;;;0.93;0.93;;;;;;;3.15;100.00;96932.34;4926374;28;20572;-48
2022/02/20 06:35:37;;;;;;;2.23;1.63;;;;;;;3.37;100.00;96946.06;4949179;28;20238;-56
2022/02/20 06:38:05;;;;;;;2.43;1.27;;;;;;;3.25;100.00;96940.16;4910360;28;20210;-56
2022/02/20 06:40:34;;;;;;;3.00;1.70;;;;;;;3.04;100.00;96935.97;4927179;28;20214;-52
2022/02/20 06:43:04;;;;;;;3.13;1.53;;;;;;;3.01;100.00;96932.81;4897305;28;20227;-51
2022/02/20 06:45:32;;;;;;;3.20;1.30;;;;;;;2.95;100.00;96938.63;4926724;28;20321;-52
2022/02/20 06:48:00;;;;;;;1.93;1.50;;;;;;;2.92;100.00;96946.75;4923248;28;20206;-54
2022/02/20 06:50:29;;;;;;;3.57;2.00;;;;;;;2.89;100.00;96938.22;4929319;28;20221;-50
2022/02/20 06:52:57;;;;;;;2.10;1.53;;;;;;;2.92;100.00;96937.09;4911042;28;22037;-54
2022/02/20 06:55:25;;;;;;;1.63;1.53;;;;;;;2.91;100.00;96942.50;4944285;28;20202;-51
2022/02/20 06:57:54;;;;;;;1.97;1.40;;;;;;;2.93;100.00;96938.75;4928769;28;20576;-56
2022/02/20 07:00:23;;;;;;;2.00;1.63;;;;;;;3.09;100.00;96946.00;4926876;28;20203;-54
2022/02/20 07:02:51;;;;;;;1.30;1.20;;;;;;;3.19;100.00;96949.41;4922980;28;20209;-54
2022/02/20 07:05:20;;;;;;;2.23;2.03;;;;;;;3.30;100.00;96958.06;4930052;28;20218;-51
2022/02/20 07:07:48;;;;;;;2.37;1.90;;;;;;;3.39;100.00;96949.34;4947990;28;20213;-54
2022/02/20 07:10:16;;;;;;;2.60;2.33;;;;;;;3.45;100.00;96943.53;4914152;28;20230;-53
2022/02/20 07:12:43;;;;;;;3.30;1.50;;;;;;;3.56;100.00;96944.31;4916603;28;20246;-55
2022/02/20 07:15:12;;;;;;;3.07;1.80;;;;;;;3.74;100.00;96946.97;4918913;28;20947;-53
2022/02/20 07:17:42;;;;;;;2.07;1.87;;;;;;;3.58;100.00;96944.97;4920539;28;20227;-54
2022/02/20 07:20:11;;;;;;;1.80;1.50;;;;;;;3.57;100.00;96953.81;4909466;28;20213;-53
2022/02/20 07:22:39;;;;;;;2.07;1.40;;;;;;;3.46;100.00;96963.50;4945345;28;20249;-51
2022/02/20 07:25:08;;;;;;;2.77;1.57;;;;;;;3.41;100.00;96952.66;4908677;28;20210;-53
2022/02/20 07:27:37;;;;;;;1.87;1.40;;;;;;;3.41;100.00;96964.91;4947839;28;20217;-53
2022/02/20 07:30:07;;;;;;;1.13;1.13;;;;;;;3.50;100.00;96968.47;4921638;28;20232;-56
2022/02/20 07:32:35;;;;;;;1.97;1.77;;;;;;;3.52;100.00;96969.97;4925505;28;20709;-52
2022/02/20 07:35:07;;;;;;;2.97;1.50;;;;;;;3.55;100.00;96974.94;4909835;28;20207;-52
2022/02/20 07:37:35;;;;;;;2.07;1.83;;;;;;;3.48;100.00;96971.25;4944926;28;20207;-51
2022/02/20 07:40:04;;;;;;;3.03;2.33;;;;;;;3.39;100.00;96985.19;4909610;28;20233;-53
2022/02/20 07:42:32;;;;;;;2.93;1.87;;;;;;;3.51;100.00;96978.81;4941091;28;20774;-51
2022/02/20 07:45:01;;;;;;;2.30;2.10;;;;;;;3.55;100.00;96982.78;4934565;28;20669;-53
2022/02/20 07:47:31;;;;;;;1.37;1.30;;;;;;;3.70;100.00;96984.91;4927094;28;20217;-51
2022/02/20 07:49:59;;;;;;;2.23;1.47;;;;;;;3.71;100.00;96983.94;4919797;28;20237;-54
2022/02/20 07:52:30;;;;;;;4.03;1.97;;;;;;;3.88;100.00;96992.81;4940114;28;20215;-52
2022/02/20 07:54:58;;;;;;;1.47;1.37;;;;;;;3.96;100.00;96990.28;4925210;28;20226;-52
2022/02/20 07:57:27;;;;;;;2.07;1.70;;;;;;;4.03;100.00;96985.28;4937820;28;20667;-51
2022/02/20 07:59:56;;;;;;;2.13;1.53;;;;;;;4.00;100.00;96996.91;4934560;28;20203;-58
2022/02/20 08:02:24;;;;;;;2.30;1.57;;;;;;;4.20;100.00;97013.34;4921658;28;21031;-53
2022/02/20 08:04:52;;;;;;;1.60;1.50;;;;;;;3.82;100.00;97011.75;4933003;28;20226;-48
2022/02/20 08:07:20;;;;;;;6.47;1.87;;;;;;;3.71;100.00;97016.22;4933240;28;20220;-50
2022/02/20 08:09:51;;;;;;;1.83;1.53;;;;;;;3.50;100.00;97015.63;4944553;28;20230;-54
2022/02/20 08:12:20;;;;;;;3.43;2.83;;;;;;;3.72;100.00;97015.25;4932776;28;21013;-50
2022/02/20 08:14:48;;;;;;;3.23;2.47;;;;;;;3.83;100.00;97013.41;4949420;28;20250;-56
2022/02/20 08:17:16;;;;;;;3.67;2.73;;;;;;;3.93;100.00;97022.03;4932232;28;20210;-48
2022/02/20 08:19:44;;;;;;;4.50;1.97;;;;;;;3.81;100.00;97021.44;4934873;28;20231;-52
2022/02/20 08:22:12;;;;;;;3.40;1.43;;;;;;;3.96;100.00;97011.25;4918975;28;20952;-50
2022/02/20 08:24:40;;;;;;;4.13;1.57;;;;;;;3.88;100.00;97019.88;4948792;28;20606;-53
2022/02/20 08:27:10;;;;;;;3.93;2.00;;;;;;;3.78;100.00;97026.94;4908545;28;20207;-50
2022/02/20 08:29:38;;;;;;;2.90;1.80;;;;;;;3.77;100.00;97025.28;4948974;28;20233;-52
2022/02/20 08:32:07;;;;;;;1.97;1.87;;;;;;;3.88;100.00;97024.28;4932853;28;20433;-52
2022/02/20 08:34:36;;;;;;;1.97;1.87;;;;;;;4.02;100.00;97018.56;4936918;28;20324;-51
2022/02/20 08:37:04;;;;;;;4.27;2.70;;;;;;;4.12;100.00;97015.88;4916366;28;20294;-58
2022/02/20 08:39:34;;;;;;;2.20;2.10;;;;;;;4.41;100.00;97012.25;4946483;28;20210;-53
2022/02/20 08:42:03;;;;;;;3.17;1.93;;;;;;;4.45;100.00;96997.03;4910231;28;20425;-54
2022/02/20 08:44:34;;;;;;;2.33;2.07;;;;;;;4.65;100.00;97005.56;4945714;28;20226;-51
2022/02/20 08:47:03;;;;;;;3.13;2.17;;;;;;;4.68;100.00;97005.28;4948849;28;20237;-56
2022/02/20 08:49:31;;;;;;;1.77;1.53;;;;;;;4.64;100.00;97002.13;4931846;28;20571;-54
2022/02/20 08:52:00;;;;;;;1.80;1.70;;;;;;;4.35;100.00;97005.78;4936762;28;20632;-52
2022/02/20 08:54:28;;;;;;;3.20;1.80;;;;;;;4.32;100.00;97007.88;4945485;28;20239;-53
2022/02/20 08:56:57;;;;;;;2.27;1.67;;;;;;;4.26;100.00;97005.88;4926244;28;20210;-53
2022/02/20 08:59:25;;;;;;;1.60;1.30;;;;;;;4.20;100.00;97004.66;4937610;28;20207;-50
2022/02/20 09:01:55;;;;;;;1.67;1.57;;;;;;;4.35;100.00;97003.16;4945948;28;20229;-50
2022/02/20 09:04:23;;;;;;;2.43;2.13;;;;;;;4.48;100.00;97007.22;4931263;28;21044;-50
2022/02/20 09:06:51;;;;;;;1.43;1.33;;;;;;;4.41;100.00;97001.75;4946420;28;20218;-50
2022/02/20 09:09:19;;;;;;;2.80;1.93;;;;;;;4.36;100.00;96990.88;4934249;28;20210;-49
2022/02/20 09:11:47;;;;;;;1.77;1.67;;;;;;;4.54;100.00;96985.63;4944261;28;20513;-50
2022/02/20 09:14:16;;;;;;;1.83;1.50;;;;;;;4.67;100.00;97005.41;4912244;28;20238;-49
2022/02/20 09:16:44;;;;;;;3.00;2.00;;;;;;;4.75;100.00;96993.19;4943511;28;20207;-52
2022/02/20 09:19:13;;;;;;;1.73;1.60;;;;;;;4.97;100.00;96996.31;4905367;28;20225;-55
2022/02/20 09:21:41;;;;;;;1.70;1.37;;;;;;;4.91;100.00;97002.16;4931216;28;20220;-50
2022/02/20 09:24:09;;;;;;;3.30;1.47;;;;;;;5.04;100.00;96999.13;4914608;28;20231;-52
2022/02/20 09:26:37;;;;;;;1.87;1.70;;;;;;;5.54;100.00;96996.81;4948511;28;20696;-49
2022/02/20 09:29:05;;;;;;;1.47;1.37;;;;;;;5.70;100.00;97003.97;4886177;28;20211;-54
2022/02/20 09:31:33;;;;;;;2.03;1.17;;;;;;;5.60;100.00;96999.63;4943851;28;20930;-53
2022/02/20 09:34:01;;;;;;;1.37;0.83;;;;;;;5.65;100.00;97002.59;4948281;28;20312;-56
2022/02/20 09:36:30;;;;;;;3.30;1.57;;;;;;;5.74;100.00;97000.03;4918771;28;20690;-55
2022/02/20 09:38:59;;;;;;;0.90;0.90;;;;;;;5.95;100.00;96997.00;4915170;28;20207;-45
2022/02/20 09:41:28;;;;;;;1.33;1.30;;;;;;;6.08;100.00;97012.38;4944624;28;20329;-51
2022/02/20 09:43:57;;;;;;;1.30;1.13;;;;;;;6.09;100.00;97003.50;4912204;28;20325;-51
2022/02/20 09:46:25;;;;;;;1.37;1.23;;;;;;;6.41;100.00;97008.97;4941837;28;20209;-49
2022/02/20 09:48:55;;;;;;;2.63;1.43;;;;;;;6.58;100.00;97010.63;4945062;28;20204;-53
2022/02/20 09:51:23;;;;;;;3.40;1.47;;;;;;;6.66;100.00;97008.03;4928613;28;20241;-54
2022/02/20 09:53:53;;;;;;;2.73;1.37;;;;;;;6.59;100.00;97007.03;4918957;28;20244;-49
2022/02/20 09:56:21;;;;;;;3.00;1.53;;;;;;;6.56;100.00;97011.81;4930995;28;20707;-51
2022/02/20 09:58:50;;;;;;;1.83;1.27;;;;;;;6.88;100.00;97008.34;4906626;28;22564;-50
2022/02/20 10:01:18;;;;;;;1.20;1.10;;;;;;;6.92;100.00;96999.13;4944070;28;21013;-53
2022/02/20 10:03:48;;;;;;;1.27;0.90;;;;;;;6.73;100.00;97013.44;4937588;28;20271;-56
2022/02/20 10:06:19;;;;;;;0.80;0.80;;;;;;;7.05;100.00;97003.09;4945000;28;20215;-51
2022/02/20 10:08:48;;;;;;;0.90;0.90;;;;;;;7.08;100.00;96985.13;4913497;28;20293;-51
2022/02/20 10:11:20;;;;;;;0.87;0.87;;;;;;;7.23;100.00;96981.84;4911394;28;20222;-52
2022/02/20 10:13:50;;;;;;;2.43;1.27;;;;;;;7.29;100.00;97004.03;4947492;28;20238;-52
2022/02/20 10:16:26;;;;;;;0.90;0.90;;;;;;;7.21;100.00;96995.16;4912794;28;20226;-55
2022/02/20 10:19:00;;;;;;;1.20;1.10;;;;;;;7.39;100.00;96987.06;4943854;28;20397;-49
2022/02/20 10:21:30;;;;;;;0.97;0.87;;;;;;;7.43;100.00;96986.72;4946984;28;20218;-56
2022/02/20 10:24:06;;;;;;;2.60;1.00;;;;;;;7.19;100.00;96978.69;4927356;28;20491;-54
2022/02/20 10:26:41;;;;;;;1.50;1.10;;;;;;;7.63;100.00;96989.78;4926686;28;21110;-51
2022/02/20 10:29:11;;;;;;;1.50;1.20;;;;;;;7.73;100.00;96979.03;4939883;28;20209;-53
2022/02/20 10:31:45;;;;;;;2.07;1.23;;;;;;;7.86;100.00;96974.03;4895437;28;20234;-52
2022/02/20 10:34:14;;;;;;;1.40;1.30;;;;;;;7.63;100.00;96984.50;4943773;28;20223;-50
2022/02/20 10:36:54;;;;;;;1.10;1.00;;;;;;;7.51;100.00;96968.22;4942292;28;20559;-53
2022/02/20 10:39:25;;;;;;;1.07;0.90;;;;;;;7.56;100.00;96968.53;4929589;28;20210;-49
2022/02/20 10:41:56;;;;;;;1.57;1.00;;;;;;;7.50;100.00;96958.69;4907144;28;20666;-52
2022/02/20 10:44:24;;;;;;;0.97;0.97;;;;;;;7.72;100.00;96948.41;4929548;28;20770;-52
2022/02/20 10:47:09;;;;;;;1.80;1.07;;;;;;;7.65;100.00;96938.53;4906002;28;20229;-51
2022/02/20 10:49:37;;;;;;;2.43;1.07;;;;;;;7.66;100.00;96928.78;4948318;28;20206;-48
2022/02/20 10:52:06;;;;;;;0.87;0.83;;;;;;;7.86;100.00;96936.31;4920855;28;20223;-54
2022/02/20 10:54:34;;;;;;;1.03;0.70;;;;;;;7.87;100.00;96936.13;4930547;28;20740;-53
2022/02/20 10:57:03;;;;;;;0.80;0.80;;;;;;;7.88;100.00;96939.59;4931350;28;20211;-55
2022/02/20 10:59:50;;;;;;;1.43;1.13;;;;;;;8.25;100.00;96949.41;4943326;28;20209;-54
2022/02/20 11:02:19;;;;;;;1.33;1.10;;;;;;;8.65;100.00;96940.59;4912053;28;20214;-50
2022/02/20 11:04:47;;;;;;;2.37;1.27;;;;;;;8.80;100.00;96944.09;4948622;28;20223;-55
2022/02/20 11:07:17;;;;;;;1.70;1.00;;;;;;;8.56;100.00;96945.13;4940742;28;20201;-53
2022/02/20 11:09:46;;;;;;;1.67;1.03;;;;;;;7.96;100.00;96936.91;4930925;28;20306;-51
2022/02/20 11:12:15;;;;;;;1.57;1.33;;;;;;;8.39;100.00;96936.47;4928966;28;20222;-57
2022/02/20 11:14:44;;;;;;;1.33;1.10;;;;;;;8.09;100.00;96923.16;4944023;28;20245;-49
2022/02/20 11:17:14;;;;;;;1.23;1.13;;;;;;;7.79;100.00;96921.16;4898918;28;20931;-46
2022/02/20 11:19:42;;;;;;;1.47;1.37;;;;;;;8.24;100.00;96912.66;4944472;28;20428;-57
2022/02/20 11:22:10;;;;;;;1.20;1.10;;;;;;;8.40;100.00;96914.34;4944135;28;20461;-51
2022/02/20 11:24:40;;;;;;;2.30;0.93;;;;;;;8.47;100.00;96910.00;4929449;28;20716;-51
2022/02/20 11:27:13;;;;;;;2.30;0.97;;;;;;;8.36;100.00;96911.25;4927363;28;20211;-52
2022/02/20 11:29:43;;;;;;;1.90;1.17;;;;;;;8.45;100.00;96905.88;4945749;28;20753;-50
2022/02/20 11:32:12;;;;;;;1.33;1.03;;;;;;;8.29;100.00;96909.47;4897754;28;20724;-50
2022/02/20 11:34:42;;;;;;;0.80;0.80;;;;;;;8.00;100.00;96906.53;4943809;28;20318;-54
2022/02/20 11:37:11;;;;;;;1.30;1.07;;;;;;;7.40;100.00;96908.81;4941916;28;20241;-54
2022/02/20 11:39:59;;;;;;;1.80;1.17;;;;;;;7.38;100.00;96895.78;4944086;28;20215;-51